sensor_id;sensor_type;location;lat;lon;timestamp;P1;durP1;ratioP1;P2;durP2;ratioP2
63536;SDS011;49686;51.880;5.632;2023-04-25T00:00:16;10.65;;;2.20;;
63536;SDS011;49686;51.880;5.632;2023-04-25T00:02:43;11.23;;;2.17;;
63536;SDS011;49686;51.880;5.632;2023-04-25T00:05:10;9.43;;;2.30;;
63536;SDS011;49686;51.880;5.632;2023-04-25T00:07:37;9.15;;;2.80;;
63536;SDS011;49686;51.880;5.632;2023-04-25T00:10:05;8.48;;;2.35;;
63536;SDS011;49686;51.880;5.632;2023-04-25T00:12:32;10.05;;;2.75;;
63536;SDS011;49686;51.880;5.632;2023-04-25T00:14:59;9.50;;;3.05;;
63536;SDS011;49686;51.880;5.632;2023-04-25T00:17:27;6.35;;;2.60;;
63536;SDS011;49686;51.880;5.632;2023-04-25T00:19:54;10.35;;;2.60;;
63536;SDS011;49686;51.880;5.632;2023-04-25T00:22:21;11.48;;;3.20;;
63536;SDS011;49686;51.880;5.632;2023-04-25T00:24:48;14.48;;;3.08;;
63536;SDS011;49686;51.880;5.632;2023-04-25T00:27:15;17.15;;;3.38;;
63536;SDS011;49686;51.880;5.632;2023-04-25T00:29:42;11.95;;;3.85;;
63536;SDS011;49686;51.880;5.632;2023-04-25T00:32:08;10.15;;;2.78;;
63536;SDS011;49686;51.880;5.632;2023-04-25T00:34:36;10.80;;;2.95;;
63536;SDS011;49686;51.880;5.632;2023-04-25T00:37:03;12.53;;;3.03;;
63536;SDS011;49686;51.880;5.632;2023-04-25T00:39:30;9.55;;;3.25;;
63536;SDS011;49686;51.880;5.632;2023-04-25T00:41:57;8.48;;;2.80;;
63536;SDS011;49686;51.880;5.632;2023-04-25T00:44:24;13.20;;;3.60;;
63536;SDS011;49686;51.880;5.632;2023-04-25T00:46:51;12.63;;;3.10;;
63536;SDS011;49686;51.880;5.632;2023-04-25T00:49:19;7.90;;;2.70;;
63536;SDS011;49686;51.880;5.632;2023-04-25T00:51:48;12.00;;;2.78;;
63536;SDS011;49686;51.880;5.632;2023-04-25T00:54:14;9.02;;;3.00;;
63536;SDS011;49686;51.880;5.632;2023-04-25T00:56:42;12.23;;;3.40;;
63536;SDS011;49686;51.880;5.632;2023-04-25T00:59:09;9.35;;;2.83;;
63536;SDS011;49686;51.880;5.632;2023-04-25T01:01:36;6.28;;;2.78;;
63536;SDS011;49686;51.880;5.632;2023-04-25T01:04:04;8.07;;;2.78;;
63536;SDS011;49686;51.880;5.632;2023-04-25T01:06:31;7.65;;;2.67;;
63536;SDS011;49686;51.880;5.632;2023-04-25T01:09:00;6.38;;;3.08;;
63536;SDS011;49686;51.880;5.632;2023-04-25T01:11:27;8.77;;;2.70;;
63536;SDS011;49686;51.880;5.632;2023-04-25T01:13:54;7.50;;;3.00;;
63536;SDS011;49686;51.880;5.632;2023-04-25T01:16:21;7.50;;;2.47;;
63536;SDS011;49686;51.880;5.632;2023-04-25T01:18:48;11.13;;;3.75;;
63536;SDS011;49686;51.880;5.632;2023-04-25T01:21:17;10.27;;;3.67;;
63536;SDS011;49686;51.880;5.632;2023-04-25T01:23:44;11.15;;;3.38;;
63536;SDS011;49686;51.880;5.632;2023-04-25T01:26:11;9.70;;;3.53;;
63536;SDS011;49686;51.880;5.632;2023-04-25T01:28:38;12.70;;;3.35;;
63536;SDS011;49686;51.880;5.632;2023-04-25T01:31:06;8.45;;;2.95;;
63536;SDS011;49686;51.880;5.632;2023-04-25T01:33:33;8.93;;;4.00;;
63536;SDS011;49686;51.880;5.632;2023-04-25T01:35:59;13.57;;;4.00;;
63536;SDS011;49686;51.880;5.632;2023-04-25T01:38:27;8.32;;;2.78;;
63536;SDS011;49686;51.880;5.632;2023-04-25T01:40:54;13.75;;;3.67;;
63536;SDS011;49686;51.880;5.632;2023-04-25T01:43:23;9.07;;;4.00;;
63536;SDS011;49686;51.880;5.632;2023-04-25T01:45:50;11.23;;;2.50;;
63536;SDS011;49686;51.880;5.632;2023-04-25T01:48:17;10.85;;;3.50;;
63536;SDS011;49686;51.880;5.632;2023-04-25T01:50:44;12.73;;;3.60;;
63536;SDS011;49686;51.880;5.632;2023-04-25T01:53:12;9.95;;;4.10;;
63536;SDS011;49686;51.880;5.632;2023-04-25T01:55:41;11.88;;;4.90;;
63536;SDS011;49686;51.880;5.632;2023-04-25T01:58:08;9.52;;;3.53;;
63536;SDS011;49686;51.880;5.632;2023-04-25T02:00:35;11.65;;;3.00;;
63536;SDS011;49686;51.880;5.632;2023-04-25T02:03:02;8.02;;;3.53;;
63536;SDS011;49686;51.880;5.632;2023-04-25T02:05:28;10.57;;;3.33;;
63536;SDS011;49686;51.880;5.632;2023-04-25T02:08:00;10.63;;;3.90;;
63536;SDS011;49686;51.880;5.632;2023-04-25T02:10:30;11.35;;;3.75;;
63536;SDS011;49686;51.880;5.632;2023-04-25T02:12:59;15.88;;;4.95;;
63536;SDS011;49686;51.880;5.632;2023-04-25T02:15:25;14.03;;;3.80;;
63536;SDS011;49686;51.880;5.632;2023-04-25T02:17:52;8.20;;;3.75;;
63536;SDS011;49686;51.880;5.632;2023-04-25T02:20:20;9.93;;;4.00;;
63536;SDS011;49686;51.880;5.632;2023-04-25T02:22:48;16.50;;;4.18;;
63536;SDS011;49686;51.880;5.632;2023-04-25T02:25:15;14.02;;;3.60;;
63536;SDS011;49686;51.880;5.632;2023-04-25T02:27:42;13.25;;;3.63;;
63536;SDS011;49686;51.880;5.632;2023-04-25T02:30:10;12.40;;;4.28;;
63536;SDS011;49686;51.880;5.632;2023-04-25T02:32:38;6.07;;;3.28;;
63536;SDS011;49686;51.880;5.632;2023-04-25T02:35:06;9.32;;;3.60;;
63536;SDS011;49686;51.880;5.632;2023-04-25T02:37:33;11.80;;;4.07;;
63536;SDS011;49686;51.880;5.632;2023-04-25T02:40:02;15.30;;;4.60;;
63536;SDS011;49686;51.880;5.632;2023-04-25T02:42:29;12.25;;;4.55;;
63536;SDS011;49686;51.880;5.632;2023-04-25T02:44:56;14.68;;;4.30;;
63536;SDS011;49686;51.880;5.632;2023-04-25T02:47:24;12.13;;;4.63;;
63536;SDS011;49686;51.880;5.632;2023-04-25T02:49:51;14.88;;;4.80;;
63536;SDS011;49686;51.880;5.632;2023-04-25T02:52:18;10.73;;;4.13;;
63536;SDS011;49686;51.880;5.632;2023-04-25T02:54:45;12.40;;;4.03;;
63536;SDS011;49686;51.880;5.632;2023-04-25T02:57:11;9.02;;;3.80;;
63536;SDS011;49686;51.880;5.632;2023-04-25T02:59:38;12.82;;;4.05;;
63536;SDS011;49686;51.880;5.632;2023-04-25T03:02:05;13.75;;;4.93;;
63536;SDS011;49686;51.880;5.632;2023-04-25T03:04:33;15.32;;;4.85;;
63536;SDS011;49686;51.880;5.632;2023-04-25T03:07:00;11.50;;;3.65;;
63536;SDS011;49686;51.880;5.632;2023-04-25T03:09:27;7.20;;;3.50;;
63536;SDS011;49686;51.880;5.632;2023-04-25T03:11:53;15.82;;;4.60;;
63536;SDS011;49686;51.880;5.632;2023-04-25T03:14:20;17.50;;;4.72;;
63536;SDS011;49686;51.880;5.632;2023-04-25T03:16:47;18.30;;;5.28;;
63536;SDS011;49686;51.880;5.632;2023-04-25T03:19:14;15.38;;;4.50;;
63536;SDS011;49686;51.880;5.632;2023-04-25T03:21:42;14.00;;;4.90;;
63536;SDS011;49686;51.880;5.632;2023-04-25T03:24:09;13.95;;;4.45;;
63536;SDS011;49686;51.880;5.632;2023-04-25T03:26:36;15.32;;;4.80;;
63536;SDS011;49686;51.880;5.632;2023-04-25T03:29:03;15.73;;;4.47;;
63536;SDS011;49686;51.880;5.632;2023-04-25T03:31:30;13.57;;;4.82;;
63536;SDS011;49686;51.880;5.632;2023-04-25T03:33:57;15.32;;;4.60;;
63536;SDS011;49686;51.880;5.632;2023-04-25T03:36:24;16.67;;;4.60;;
63536;SDS011;49686;51.880;5.632;2023-04-25T03:38:52;12.95;;;4.57;;
63536;SDS011;49686;51.880;5.632;2023-04-25T03:41:19;17.13;;;4.47;;
63536;SDS011;49686;51.880;5.632;2023-04-25T03:43:45;12.32;;;5.93;;
63536;SDS011;49686;51.880;5.632;2023-04-25T03:46:12;12.35;;;4.90;;
63536;SDS011;49686;51.880;5.632;2023-04-25T03:48:40;15.90;;;5.65;;
63536;SDS011;49686;51.880;5.632;2023-04-25T03:51:07;14.80;;;4.55;;
63536;SDS011;49686;51.880;5.632;2023-04-25T03:53:34;13.60;;;4.72;;
63536;SDS011;49686;51.880;5.632;2023-04-25T03:56:02;12.60;;;4.07;;
63536;SDS011;49686;51.880;5.632;2023-04-25T03:58:29;15.23;;;5.38;;
63536;SDS011;49686;51.880;5.632;2023-04-25T04:00:56;15.88;;;4.57;;
63536;SDS011;49686;51.880;5.632;2023-04-25T04:03:22;14.55;;;3.83;;
63536;SDS011;49686;51.880;5.632;2023-04-25T04:05:50;12.88;;;4.05;;
63536;SDS011;49686;51.880;5.632;2023-04-25T04:08:17;13.32;;;5.30;;
63536;SDS011;49686;51.880;5.632;2023-04-25T04:10:43;14.45;;;4.38;;
63536;SDS011;49686;51.880;5.632;2023-04-25T04:13:12;12.27;;;4.10;;
63536;SDS011;49686;51.880;5.632;2023-04-25T04:15:38;13.07;;;3.97;;
63536;SDS011;49686;51.880;5.632;2023-04-25T04:18:05;9.63;;;4.07;;
63536;SDS011;49686;51.880;5.632;2023-04-25T04:20:32;11.65;;;3.72;;
63536;SDS011;49686;51.880;5.632;2023-04-25T04:22:59;13.93;;;4.18;;
63536;SDS011;49686;51.880;5.632;2023-04-25T04:25:26;9.10;;;3.05;;
63536;SDS011;49686;51.880;5.632;2023-04-25T04:27:53;13.57;;;3.95;;
63536;SDS011;49686;51.880;5.632;2023-04-25T04:30:22;10.60;;;4.43;;
63536;SDS011;49686;51.880;5.632;2023-04-25T04:32:49;16.92;;;3.92;;
63536;SDS011;49686;51.880;5.632;2023-04-25T04:35:16;10.52;;;3.55;;
63536;SDS011;49686;51.880;5.632;2023-04-25T04:37:43;13.38;;;4.15;;
63536;SDS011;49686;51.880;5.632;2023-04-25T04:40:10;12.43;;;4.15;;
63536;SDS011;49686;51.880;5.632;2023-04-25T04:42:37;10.45;;;3.63;;
63536;SDS011;49686;51.880;5.632;2023-04-25T04:45:04;11.77;;;3.25;;
63536;SDS011;49686;51.880;5.632;2023-04-25T04:49:39;11.25;;;3.17;;
63536;SDS011;49686;51.880;5.632;2023-04-25T04:52:06;13.25;;;4.38;;
63536;SDS011;49686;51.880;5.632;2023-04-25T04:54:33;11.98;;;3.60;;
63536;SDS011;49686;51.880;5.632;2023-04-25T04:56:59;7.60;;;3.13;;
63536;SDS011;49686;51.880;5.632;2023-04-25T04:59:26;12.38;;;3.35;;
63536;SDS011;49686;51.880;5.632;2023-04-25T05:01:54;16.87;;;4.90;;
63536;SDS011;49686;51.880;5.632;2023-04-25T05:04:21;7.97;;;3.20;;
63536;SDS011;49686;51.880;5.632;2023-04-25T05:06:52;10.13;;;3.10;;
63536;SDS011;49686;51.880;5.632;2023-04-25T05:09:19;10.70;;;3.33;;
63536;SDS011;49686;51.880;5.632;2023-04-25T05:11:45;4.70;;;2.75;;
63536;SDS011;49686;51.880;5.632;2023-04-25T05:14:12;9.63;;;3.17;;
63536;SDS011;49686;51.880;5.632;2023-04-25T05:16:39;9.63;;;2.85;;
63536;SDS011;49686;51.880;5.632;2023-04-25T05:19:06;8.55;;;2.85;;
63536;SDS011;49686;51.880;5.632;2023-04-25T05:21:32;8.60;;;2.53;;
63536;SDS011;49686;51.880;5.632;2023-04-25T05:24:01;11.38;;;2.55;;
63536;SDS011;49686;51.880;5.632;2023-04-25T05:26:28;9.73;;;2.70;;
63536;SDS011;49686;51.880;5.632;2023-04-25T05:28:56;6.72;;;3.00;;
63536;SDS011;49686;51.880;5.632;2023-04-25T05:31:23;7.60;;;2.77;;
63536;SDS011;49686;51.880;5.632;2023-04-25T05:33:49;9.07;;;2.50;;
63536;SDS011;49686;51.880;5.632;2023-04-25T05:36:17;12.82;;;2.80;;
63536;SDS011;49686;51.880;5.632;2023-04-25T05:38:44;7.38;;;2.08;;
63536;SDS011;49686;51.880;5.632;2023-04-25T05:41:13;5.90;;;2.20;;
63536;SDS011;49686;51.880;5.632;2023-04-25T05:43:40;7.33;;;1.90;;
63536;SDS011;49686;51.880;5.632;2023-04-25T05:46:06;6.32;;;1.90;;
63536;SDS011;49686;51.880;5.632;2023-04-25T05:48:33;7.95;;;2.40;;
63536;SDS011;49686;51.880;5.632;2023-04-25T05:51:00;8.45;;;2.55;;
63536;SDS011;49686;51.880;5.632;2023-04-25T05:53:27;7.97;;;2.33;;
63536;SDS011;49686;51.880;5.632;2023-04-25T05:55:53;6.53;;;1.98;;
63536;SDS011;49686;51.880;5.632;2023-04-25T05:58:22;6.35;;;1.98;;
63536;SDS011;49686;51.880;5.632;2023-04-25T06:00:48;7.45;;;2.15;;
63536;SDS011;49686;51.880;5.632;2023-04-25T06:03:15;12.63;;;2.30;;
63536;SDS011;49686;51.880;5.632;2023-04-25T06:05:46;8.57;;;2.20;;
63536;SDS011;49686;51.880;5.632;2023-04-25T06:08:13;7.55;;;1.77;;
63536;SDS011;49686;51.880;5.632;2023-04-25T06:10:41;11.07;;;1.73;;
63536;SDS011;49686;51.880;5.632;2023-04-25T06:13:07;5.93;;;1.60;;
63536;SDS011;49686;51.880;5.632;2023-04-25T06:15:35;6.57;;;1.60;;
63536;SDS011;49686;51.880;5.632;2023-04-25T06:18:02;6.15;;;1.92;;
63536;SDS011;49686;51.880;5.632;2023-04-25T06:20:29;7.65;;;2.05;;
63536;SDS011;49686;51.880;5.632;2023-04-25T06:22:56;5.88;;;1.90;;
63536;SDS011;49686;51.880;5.632;2023-04-25T06:25:23;8.82;;;2.60;;
63536;SDS011;49686;51.880;5.632;2023-04-25T06:27:50;6.15;;;1.77;;
63536;SDS011;49686;51.880;5.632;2023-04-25T06:30:16;5.97;;;1.60;;
63536;SDS011;49686;51.880;5.632;2023-04-25T06:32:45;8.52;;;2.42;;
63536;SDS011;49686;51.880;5.632;2023-04-25T06:35:14;5.18;;;1.55;;
63536;SDS011;49686;51.880;5.632;2023-04-25T06:37:41;7.03;;;1.70;;
63536;SDS011;49686;51.880;5.632;2023-04-25T06:40:08;7.70;;;2.10;;
63536;SDS011;49686;51.880;5.632;2023-04-25T06:42:35;5.85;;;1.90;;
63536;SDS011;49686;51.880;5.632;2023-04-25T06:45:02;7.00;;;2.00;;
63536;SDS011;49686;51.880;5.632;2023-04-25T06:47:30;6.07;;;1.85;;
63536;SDS011;49686;51.880;5.632;2023-04-25T06:49:58;5.82;;;1.80;;
63536;SDS011;49686;51.880;5.632;2023-04-25T06:52:25;8.60;;;1.63;;
63536;SDS011;49686;51.880;5.632;2023-04-25T06:54:52;9.70;;;2.38;;
63536;SDS011;49686;51.880;5.632;2023-04-25T06:57:19;7.72;;;1.90;;
63536;SDS011;49686;51.880;5.632;2023-04-25T06:59:45;5.40;;;1.52;;
63536;SDS011;49686;51.880;5.632;2023-04-25T07:02:12;12.77;;;1.60;;
63536;SDS011;49686;51.880;5.632;2023-04-25T07:04:39;8.35;;;1.75;;
63536;SDS011;49686;51.880;5.632;2023-04-25T07:07:08;6.82;;;1.60;;
63536;SDS011;49686;51.880;5.632;2023-04-25T07:09:34;6.17;;;1.60;;
63536;SDS011;49686;51.880;5.632;2023-04-25T07:12:01;10.20;;;1.73;;
63536;SDS011;49686;51.880;5.632;2023-04-25T07:14:28;8.68;;;1.65;;
63536;SDS011;49686;51.880;5.632;2023-04-25T07:16:55;7.88;;;1.48;;
63536;SDS011;49686;51.880;5.632;2023-04-25T07:19:22;6.80;;;1.35;;
63536;SDS011;49686;51.880;5.632;2023-04-25T07:21:49;7.40;;;1.73;;
63536;SDS011;49686;51.880;5.632;2023-04-25T07:24:20;7.78;;;1.95;;
63536;SDS011;49686;51.880;5.632;2023-04-25T07:26:47;8.50;;;1.63;;
63536;SDS011;49686;51.880;5.632;2023-04-25T07:29:14;5.38;;;1.35;;
63536;SDS011;49686;51.880;5.632;2023-04-25T07:31:40;7.47;;;1.80;;
63536;SDS011;49686;51.880;5.632;2023-04-25T07:34:07;10.80;;;1.98;;
63536;SDS011;49686;51.880;5.632;2023-04-25T07:36:34;6.93;;;1.45;;
63536;SDS011;49686;51.880;5.632;2023-04-25T07:39:01;4.93;;;1.40;;
63536;SDS011;49686;51.880;5.632;2023-04-25T07:41:29;4.45;;;1.40;;
63536;SDS011;49686;51.880;5.632;2023-04-25T07:43:56;6.90;;;1.43;;
63536;SDS011;49686;51.880;5.632;2023-04-25T07:46:22;5.22;;;1.10;;
63536;SDS011;49686;51.880;5.632;2023-04-25T07:48:49;7.00;;;1.15;;
63536;SDS011;49686;51.880;5.632;2023-04-25T07:51:17;8.57;;;2.92;;
63536;SDS011;49686;51.880;5.632;2023-04-25T07:53:43;5.65;;;2.05;;
63536;SDS011;49686;51.880;5.632;2023-04-25T07:56:10;9.27;;;4.55;;
63536;SDS011;49686;51.880;5.632;2023-04-25T07:58:38;8.45;;;2.22;;
63536;SDS011;49686;51.880;5.632;2023-04-25T08:01:05;8.25;;;1.40;;
63536;SDS011;49686;51.880;5.632;2023-04-25T08:03:32;4.28;;;1.38;;
63536;SDS011;49686;51.880;5.632;2023-04-25T08:05:59;8.13;;;1.92;;
63536;SDS011;49686;51.880;5.632;2023-04-25T08:08:28;8.23;;;1.27;;
63536;SDS011;49686;51.880;5.632;2023-04-25T08:10:55;4.63;;;1.20;;
63536;SDS011;49686;51.880;5.632;2023-04-25T08:13:22;5.00;;;0.82;;
63536;SDS011;49686;51.880;5.632;2023-04-25T08:15:50;6.60;;;1.20;;
63536;SDS011;49686;51.880;5.632;2023-04-25T08:18:17;3.70;;;1.10;;
63536;SDS011;49686;51.880;5.632;2023-04-25T08:20:44;6.65;;;1.15;;
63536;SDS011;49686;51.880;5.632;2023-04-25T08:23:12;7.97;;;1.23;;
63536;SDS011;49686;51.880;5.632;2023-04-25T08:25:39;5.30;;;1.55;;
63536;SDS011;49686;51.880;5.632;2023-04-25T08:28:05;2.60;;;0.90;;
63536;SDS011;49686;51.880;5.632;2023-04-25T08:30:32;4.05;;;1.70;;
63536;SDS011;49686;51.880;5.632;2023-04-25T08:33:00;5.07;;;1.15;;
63536;SDS011;49686;51.880;5.632;2023-04-25T08:35:27;2.78;;;1.00;;
63536;SDS011;49686;51.880;5.632;2023-04-25T08:37:54;3.95;;;1.10;;
63536;SDS011;49686;51.880;5.632;2023-04-25T08:40:22;6.63;;;1.00;;
63536;SDS011;49686;51.880;5.632;2023-04-25T08:42:49;4.87;;;1.00;;
63536;SDS011;49686;51.880;5.632;2023-04-25T08:47:45;4.03;;;0.70;;
63536;SDS011;49686;51.880;5.632;2023-04-25T08:52:43;4.80;;;0.90;;
63536;SDS011;49686;51.880;5.632;2023-04-25T08:55:11;6.40;;;1.08;;
63536;SDS011;49686;51.880;5.632;2023-04-25T08:57:39;6.10;;;1.55;;
63536;SDS011;49686;51.880;5.632;2023-04-25T09:00:08;3.65;;;0.98;;
63536;SDS011;49686;51.880;5.632;2023-04-25T09:02:36;3.92;;;0.90;;
63536;SDS011;49686;51.880;5.632;2023-04-25T09:05:03;5.13;;;0.98;;
63536;SDS011;49686;51.880;5.632;2023-04-25T09:07:33;4.63;;;0.93;;
63536;SDS011;49686;51.880;5.632;2023-04-25T09:09:59;3.30;;;0.90;;
63536;SDS011;49686;51.880;5.632;2023-04-25T09:12:26;4.13;;;0.95;;
63536;SDS011;49686;51.880;5.632;2023-04-25T09:15:02;4.15;;;1.02;;
63536;SDS011;49686;51.880;5.632;2023-04-25T09:17:32;3.13;;;0.87;;
63536;SDS011;49686;51.880;5.632;2023-04-25T09:20:06;5.70;;;0.93;;
63536;SDS011;49686;51.880;5.632;2023-04-25T09:22:36;5.65;;;1.15;;
63536;SDS011;49686;51.880;5.632;2023-04-25T09:25:04;5.15;;;1.13;;
63536;SDS011;49686;51.880;5.632;2023-04-25T09:27:34;2.28;;;0.80;;
63536;SDS011;49686;51.880;5.632;2023-04-25T09:30:01;5.10;;;1.08;;
63536;SDS011;49686;51.880;5.632;2023-04-25T09:32:31;2.75;;;0.80;;
63536;SDS011;49686;51.880;5.632;2023-04-25T09:34:58;4.65;;;1.20;;
63536;SDS011;49686;51.880;5.632;2023-04-25T09:37:26;2.78;;;0.77;;
63536;SDS011;49686;51.880;5.632;2023-04-25T09:39:56;4.75;;;0.90;;
63536;SDS011;49686;51.880;5.632;2023-04-25T09:42:23;2.95;;;0.85;;
63536;SDS011;49686;51.880;5.632;2023-04-25T09:44:51;4.50;;;1.10;;
63536;SDS011;49686;51.880;5.632;2023-04-25T09:47:19;3.03;;;0.95;;
63536;SDS011;49686;51.880;5.632;2023-04-25T09:49:46;8.93;;;2.17;;
63536;SDS011;49686;51.880;5.632;2023-04-25T09:52:14;2.42;;;0.90;;
63536;SDS011;49686;51.880;5.632;2023-04-25T09:54:41;4.85;;;1.00;;
63536;SDS011;49686;51.880;5.632;2023-04-25T09:57:13;2.47;;;1.63;;
63536;SDS011;49686;51.880;5.632;2023-04-25T09:59:45;3.83;;;0.80;;
63536;SDS011;49686;51.880;5.632;2023-04-25T10:02:13;1.58;;;0.68;;
63536;SDS011;49686;51.880;5.632;2023-04-25T10:04:41;4.55;;;1.63;;
63536;SDS011;49686;51.880;5.632;2023-04-25T10:07:10;3.15;;;1.70;;
63536;SDS011;49686;51.880;5.632;2023-04-25T10:09:38;3.85;;;0.77;;
63536;SDS011;49686;51.880;5.632;2023-04-25T10:12:06;2.85;;;0.90;;
63536;SDS011;49686;51.880;5.632;2023-04-25T10:14:34;4.35;;;1.88;;
63536;SDS011;49686;51.880;5.632;2023-04-25T10:17:02;1.83;;;1.40;;
63536;SDS011;49686;51.880;5.632;2023-04-25T10:19:29;3.28;;;1.33;;
63536;SDS011;49686;51.880;5.632;2023-04-25T10:22:04;2.72;;;0.70;;
63536;SDS011;49686;51.880;5.632;2023-04-25T10:24:34;2.95;;;0.75;;
63536;SDS011;49686;51.880;5.632;2023-04-25T10:27:01;2.28;;;1.05;;
63536;SDS011;49686;51.880;5.632;2023-04-25T10:29:30;5.97;;;1.30;;
63536;SDS011;49686;51.880;5.632;2023-04-25T10:31:58;4.00;;;0.82;;
63536;SDS011;49686;51.880;5.632;2023-04-25T10:34:37;2.45;;;0.70;;
63536;SDS011;49686;51.880;5.632;2023-04-25T10:37:04;4.82;;;1.00;;
63536;SDS011;49686;51.880;5.632;2023-04-25T10:39:34;4.35;;;1.20;;
63536;SDS011;49686;51.880;5.632;2023-04-25T10:42:01;2.90;;;1.00;;
63536;SDS011;49686;51.880;5.632;2023-04-25T10:44:29;3.58;;;1.10;;
63536;SDS011;49686;51.880;5.632;2023-04-25T10:46:56;4.60;;;1.30;;
63536;SDS011;49686;51.880;5.632;2023-04-25T10:49:29;2.97;;;0.90;;
63536;SDS011;49686;51.880;5.632;2023-04-25T10:54:54;2.53;;;1.00;;
63536;SDS011;49686;51.880;5.632;2023-04-25T10:57:36;4.00;;;0.75;;
63536;SDS011;49686;51.880;5.632;2023-04-25T11:00:07;4.57;;;1.15;;
63536;SDS011;49686;51.880;5.632;2023-04-25T11:02:38;3.83;;;0.90;;
63536;SDS011;49686;51.880;5.632;2023-04-25T11:05:07;5.85;;;1.00;;
63536;SDS011;49686;51.880;5.632;2023-04-25T11:07:37;4.55;;;1.25;;
63536;SDS011;49686;51.880;5.632;2023-04-25T11:10:18;3.75;;;1.33;;
63536;SDS011;49686;51.880;5.632;2023-04-25T11:12:45;6.32;;;1.45;;
63536;SDS011;49686;51.880;5.632;2023-04-25T11:15:12;5.82;;;1.00;;
63536;SDS011;49686;51.880;5.632;2023-04-25T11:17:41;2.72;;;0.82;;
63536;SDS011;49686;51.880;5.632;2023-04-25T11:20:09;4.10;;;1.00;;
63536;SDS011;49686;51.880;5.632;2023-04-25T11:22:37;4.75;;;0.80;;
63536;SDS011;49686;51.880;5.632;2023-04-25T11:25:05;3.92;;;0.70;;
63536;SDS011;49686;51.880;5.632;2023-04-25T11:27:32;4.00;;;0.98;;
63536;SDS011;49686;51.880;5.632;2023-04-25T11:30:04;4.85;;;1.00;;
63536;SDS011;49686;51.880;5.632;2023-04-25T11:32:36;4.45;;;1.00;;
63536;SDS011;49686;51.880;5.632;2023-04-25T11:35:08;2.58;;;0.70;;
63536;SDS011;49686;51.880;5.632;2023-04-25T11:37:35;2.47;;;0.70;;
63536;SDS011;49686;51.880;5.632;2023-04-25T11:40:03;7.47;;;1.00;;
63536;SDS011;49686;51.880;5.632;2023-04-25T11:42:31;4.90;;;1.20;;
63536;SDS011;49686;51.880;5.632;2023-04-25T11:45:00;5.18;;;1.00;;
63536;SDS011;49686;51.880;5.632;2023-04-25T11:47:28;4.78;;;1.20;;
63536;SDS011;49686;51.880;5.632;2023-04-25T11:49:55;2.55;;;0.88;;
63536;SDS011;49686;51.880;5.632;2023-04-25T11:52:25;1.58;;;1.25;;
63536;SDS011;49686;51.880;5.632;2023-04-25T11:55:03;2.30;;;0.93;;
63536;SDS011;49686;51.880;5.632;2023-04-25T12:00:04;3.65;;;1.10;;
63536;SDS011;49686;51.880;5.632;2023-04-25T12:02:32;4.55;;;1.10;;
63536;SDS011;49686;51.880;5.632;2023-04-25T12:05:01;4.72;;;0.90;;
63536;SDS011;49686;51.880;5.632;2023-04-25T12:07:48;4.20;;;1.10;;
63536;SDS011;49686;51.880;5.632;2023-04-25T12:10:15;2.83;;;0.90;;
63536;SDS011;49686;51.880;5.632;2023-04-25T12:12:44;5.65;;;0.88;;
63536;SDS011;49686;51.880;5.632;2023-04-25T12:15:13;5.75;;;1.00;;
63536;SDS011;49686;51.880;5.632;2023-04-25T12:17:41;2.80;;;1.00;;
63536;SDS011;49686;51.880;5.632;2023-04-25T12:20:12;5.22;;;0.90;;
63536;SDS011;49686;51.880;5.632;2023-04-25T12:25:08;3.58;;;0.80;;
63536;SDS011;49686;51.880;5.632;2023-04-25T12:27:35;4.38;;;1.52;;
63536;SDS011;49686;51.880;5.632;2023-04-25T12:30:03;3.85;;;1.17;;
63536;SDS011;49686;51.880;5.632;2023-04-25T12:32:31;4.57;;;1.00;;
63536;SDS011;49686;51.880;5.632;2023-04-25T12:34:58;4.38;;;1.17;;
63536;SDS011;49686;51.880;5.632;2023-04-25T12:37:25;3.90;;;1.27;;
63536;SDS011;49686;51.880;5.632;2023-04-25T12:39:53;3.63;;;1.00;;
63536;SDS011;49686;51.880;5.632;2023-04-25T12:42:23;1.35;;;0.68;;
63536;SDS011;49686;51.880;5.632;2023-04-25T12:44:50;3.47;;;1.20;;
63536;SDS011;49686;51.880;5.632;2023-04-25T12:47:17;4.78;;;1.25;;
63536;SDS011;49686;51.880;5.632;2023-04-25T12:49:44;3.05;;;0.90;;
63536;SDS011;49686;51.880;5.632;2023-04-25T12:52:11;2.08;;;0.70;;
63536;SDS011;49686;51.880;5.632;2023-04-25T12:54:37;1.65;;;0.70;;
63536;SDS011;49686;51.880;5.632;2023-04-25T12:57:04;4.32;;;1.73;;
63536;SDS011;49686;51.880;5.632;2023-04-25T12:59:32;4.03;;;0.88;;
63536;SDS011;49686;51.880;5.632;2023-04-25T13:01:59;2.25;;;0.95;;
63536;SDS011;49686;51.880;5.632;2023-04-25T13:04:26;4.47;;;0.80;;
63536;SDS011;49686;51.880;5.632;2023-04-25T13:06:53;3.45;;;1.48;;
63536;SDS011;49686;51.880;5.632;2023-04-25T13:09:20;4.57;;;0.95;;
63536;SDS011;49686;51.880;5.632;2023-04-25T13:11:46;3.03;;;1.73;;
63536;SDS011;49686;51.880;5.632;2023-04-25T13:14:13;3.85;;;0.80;;
63536;SDS011;49686;51.880;5.632;2023-04-25T13:16:41;4.57;;;1.10;;
63536;SDS011;49686;51.880;5.632;2023-04-25T13:19:08;4.38;;;0.98;;
63536;SDS011;49686;51.880;5.632;2023-04-25T13:21:35;2.33;;;1.30;;
63536;SDS011;49686;51.880;5.632;2023-04-25T13:24:02;2.55;;;0.80;;
63536;SDS011;49686;51.880;5.632;2023-04-25T13:26:29;3.15;;;1.10;;
63536;SDS011;49686;51.880;5.632;2023-04-25T13:28:56;2.80;;;0.90;;
63536;SDS011;49686;51.880;5.632;2023-04-25T13:31:23;2.13;;;0.70;;
63536;SDS011;49686;51.880;5.632;2023-04-25T13:33:51;7.30;;;1.35;;
63536;SDS011;49686;51.880;5.632;2023-04-25T13:36:18;2.65;;;1.05;;
63536;SDS011;49686;51.880;5.632;2023-04-25T13:38:46;3.05;;;1.30;;
63536;SDS011;49686;51.880;5.632;2023-04-25T13:41:13;1.40;;;0.80;;
63536;SDS011;49686;51.880;5.632;2023-04-25T13:43:40;2.72;;;0.80;;
63536;SDS011;49686;51.880;5.632;2023-04-25T13:46:07;2.67;;;0.80;;
63536;SDS011;49686;51.880;5.632;2023-04-25T13:48:51;4.13;;;1.75;;
63536;SDS011;49686;51.880;5.632;2023-04-25T13:51:28;3.75;;;1.48;;
63536;SDS011;49686;51.880;5.632;2023-04-25T13:53:57;3.30;;;0.88;;
63536;SDS011;49686;51.880;5.632;2023-04-25T13:56:24;2.70;;;1.33;;
63536;SDS011;49686;51.880;5.632;2023-04-25T13:58:51;2.22;;;0.63;;
63536;SDS011;49686;51.880;5.632;2023-04-25T14:01:18;2.70;;;0.70;;
63536;SDS011;49686;51.880;5.632;2023-04-25T14:03:45;2.78;;;0.90;;
63536;SDS011;49686;51.880;5.632;2023-04-25T14:06:13;1.70;;;0.68;;
63536;SDS011;49686;51.880;5.632;2023-04-25T14:08:40;1.87;;;0.80;;
63536;SDS011;49686;51.880;5.632;2023-04-25T14:11:07;2.42;;;0.90;;
63536;SDS011;49686;51.880;5.632;2023-04-25T14:13:34;2.90;;;0.90;;
63536;SDS011;49686;51.880;5.632;2023-04-25T14:16:00;2.17;;;0.60;;
63536;SDS011;49686;51.880;5.632;2023-04-25T14:18:28;3.83;;;1.20;;
63536;SDS011;49686;51.880;5.632;2023-04-25T14:20:55;3.28;;;1.80;;
63536;SDS011;49686;51.880;5.632;2023-04-25T14:23:23;5.13;;;1.00;;
63536;SDS011;49686;51.880;5.632;2023-04-25T14:25:50;3.85;;;1.23;;
63536;SDS011;49686;51.880;5.632;2023-04-25T14:28:17;3.80;;;1.00;;
63536;SDS011;49686;51.880;5.632;2023-04-25T14:30:43;3.30;;;1.00;;
63536;SDS011;49686;51.880;5.632;2023-04-25T14:33:10;1.73;;;1.10;;
63536;SDS011;49686;51.880;5.632;2023-04-25T14:35:37;2.35;;;0.90;;
63536;SDS011;49686;51.880;5.632;2023-04-25T14:38:04;3.72;;;1.05;;
63536;SDS011;49686;51.880;5.632;2023-04-25T14:40:32;4.47;;;0.90;;
63536;SDS011;49686;51.880;5.632;2023-04-25T14:42:59;4.87;;;1.07;;
63536;SDS011;49686;51.880;5.632;2023-04-25T14:45:26;1.25;;;0.75;;
63536;SDS011;49686;51.880;5.632;2023-04-25T14:47:53;3.03;;;0.75;;
63536;SDS011;49686;51.880;5.632;2023-04-25T14:50:20;4.70;;;1.00;;
63536;SDS011;49686;51.880;5.632;2023-04-25T14:52:47;4.50;;;1.33;;
63536;SDS011;49686;51.880;5.632;2023-04-25T14:55:13;3.30;;;0.90;;
63536;SDS011;49686;51.880;5.632;2023-04-25T14:57:41;4.38;;;0.90;;
63536;SDS011;49686;51.880;5.632;2023-04-25T15:00:11;4.10;;;0.95;;